sensor_id;sensor_type;location;lat;lon;timestamp;temperature;humidity
12504;DHT22;6316;48.118;-1.690;2022-12-01T00:02:14;6.70;99.90
12504;DHT22;6316;48.118;-1.690;2022-12-01T00:04:40;6.70;99.90
12504;DHT22;6316;48.118;-1.690;2022-12-01T00:07:06;6.70;99.90
12504;DHT22;6316;48.118;-1.690;2022-12-01T00:09:31;6.70;99.90
12504;DHT22;6316;48.118;-1.690;2022-12-01T00:12:15;6.70;99.90
12504;DHT22;6316;48.118;-1.690;2022-12-01T00:14:41;6.70;99.90
12504;DHT22;6316;48.118;-1.690;2022-12-01T00:17:06;6.70;99.90
12504;DHT22;6316;48.118;-1.690;2022-12-01T00:19:32;6.70;99.90
12504;DHT22;6316;48.118;-1.690;2022-12-01T00:21:58;6.70;99.90
12504;DHT22;6316;48.118;-1.690;2022-12-01T00:24:23;6.70;99.90
12504;DHT22;6316;48.118;-1.690;2022-12-01T00:26:49;6.70;99.90
12504;DHT22;6316;48.118;-1.690;2022-12-01T00:29:15;6.70;99.90
12504;DHT22;6316;48.118;-1.690;2022-12-01T00:31:41;6.80;99.90
12504;DHT22;6316;48.118;-1.690;2022-12-01T00:34:07;6.70;99.90
12504;DHT22;6316;48.118;-1.690;2022-12-01T00:36:37;6.80;99.90
12504;DHT22;6316;48.118;-1.690;2022-12-01T00:39:03;6.70;99.90
12504;DHT22;6316;48.118;-1.690;2022-12-01T00:41:29;6.80;99.90
12504;DHT22;6316;48.118;-1.690;2022-12-01T00:43:54;6.80;99.90
12504;DHT22;6316;48.118;-1.690;2022-12-01T00:46:20;6.80;99.90
12504;DHT22;6316;48.118;-1.690;2022-12-01T00:48:46;6.80;99.90
12504;DHT22;6316;48.118;-1.690;2022-12-01T00:51:11;6.80;99.90
12504;DHT22;6316;48.118;-1.690;2022-12-01T00:53:37;6.80;99.90
12504;DHT22;6316;48.118;-1.690;2022-12-01T00:56:03;6.80;99.90
12504;DHT22;6316;48.118;-1.690;2022-12-01T00:58:28;6.80;99.90
12504;DHT22;6316;48.118;-1.690;2022-12-01T01:00:58;6.80;99.90
12504;DHT22;6316;48.118;-1.690;2022-12-01T01:03:25;6.80;99.90
12504;DHT22;6316;48.118;-1.690;2022-12-01T01:05:51;6.80;99.90
12504;DHT22;6316;48.118;-1.690;2022-12-01T01:08:16;6.70;99.90
12504;DHT22;6316;48.118;-1.690;2022-12-01T01:10:43;6.80;99.90
12504;DHT22;6316;48.118;-1.690;2022-12-01T01:13:10;6.80;99.90
12504;DHT22;6316;48.118;-1.690;2022-12-01T01:15:36;6.80;99.90
12504;DHT22;6316;48.118;-1.690;2022-12-01T01:18:02;6.80;99.90
12504;DHT22;6316;48.118;-1.690;2022-12-01T01:20:28;6.70;99.90
12504;DHT22;6316;48.118;-1.690;2022-12-01T01:22:54;6.70;99.90
12504;DHT22;6316;48.118;-1.690;2022-12-01T01:25:19;6.70;99.90
12504;DHT22;6316;48.118;-1.690;2022-12-01T01:27:45;6.60;99.90
12504;DHT22;6316;48.118;-1.690;2022-12-01T01:30:11;6.60;99.90
12504;DHT22;6316;48.118;-1.690;2022-12-01T01:32:37;6.60;99.90
12504;DHT22;6316;48.118;-1.690;2022-12-01T01:35:03;6.60;99.90
12504;DHT22;6316;48.118;-1.690;2022-12-01T01:37:28;6.60;99.90
12504;DHT22;6316;48.118;-1.690;2022-12-01T01:39:54;6.50;99.90
12504;DHT22;6316;48.118;-1.690;2022-12-01T01:42:20;6.60;99.90
12504;DHT22;6316;48.118;-1.690;2022-12-01T01:44:53;6.50;99.90
12504;DHT22;6316;48.118;-1.690;2022-12-01T01:47:35;6.60;99.90
12504;DHT22;6316;48.118;-1.690;2022-12-01T01:50:06;6.60;99.90
12504;DHT22;6316;48.118;-1.690;2022-12-01T01:52:37;6.60;99.90
12504;DHT22;6316;48.118;-1.690;2022-12-01T01:55:05;6.60;99.90
12504;DHT22;6316;48.118;-1.690;2022-12-01T01:57:33;6.60;99.90
12504;DHT22;6316;48.118;-1.690;2022-12-01T02:00:10;6.50;99.90
12504;DHT22;6316;48.118;-1.690;2022-12-01T02:02:38;6.50;99.90
12504;DHT22;6316;48.118;-1.690;2022-12-01T02:05:08;6.50;99.90
12504;DHT22;6316;48.118;-1.690;2022-12-01T02:07:37;6.40;99.90
12504;DHT22;6316;48.118;-1.690;2022-12-01T02:10:04;6.40;99.90
12504;DHT22;6316;48.118;-1.690;2022-12-01T02:18:04;6.20;99.90
12504;DHT22;6316;48.118;-1.690;2022-12-01T02:20:49;6.20;99.90
12504;DHT22;6316;48.118;-1.690;2022-12-01T02:26:28;6.00;99.90
12504;DHT22;6316;48.118;-1.690;2022-12-01T02:31:53;5.90;99.90
12504;DHT22;6316;48.118;-1.690;2022-12-01T02:35:02;5.80;99.90
12504;DHT22;6316;48.118;-1.690;2022-12-01T02:40:25;5.70;99.90
12504;DHT22;6316;48.118;-1.690;2022-12-01T02:45:29;5.70;99.90
12504;DHT22;6316;48.118;-1.690;2022-12-01T02:47:59;5.60;99.90
12504;DHT22;6316;48.118;-1.690;2022-12-01T02:50:28;5.60;99.90
12504;DHT22;6316;48.118;-1.690;2022-12-01T02:52:55;5.50;99.90
12504;DHT22;6316;48.118;-1.690;2022-12-01T02:55:21;5.50;99.90
12504;DHT22;6316;48.118;-1.690;2022-12-01T02:57:46;5.40;99.90
12504;DHT22;6316;48.118;-1.690;2022-12-01T03:00:13;5.40;99.90
12504;DHT22;6316;48.118;-1.690;2022-12-01T03:03:12;5.40;99.90
12504;DHT22;6316;48.118;-1.690;2022-12-01T03:06:22;5.30;99.90
12504;DHT22;6316;48.118;-1.690;2022-12-01T03:11:51;5.30;99.90
12504;DHT22;6316;48.118;-1.690;2022-12-01T03:14:38;5.20;99.90
12504;DHT22;6316;48.118;-1.690;2022-12-01T03:17:07;5.20;99.90
12504;DHT22;6316;48.118;-1.690;2022-12-01T03:20:03;5.10;99.90
12504;DHT22;6316;48.118;-1.690;2022-12-01T03:22:31;5.30;99.90
12504;DHT22;6316;48.118;-1.690;2022-12-01T03:24:59;5.10;99.90
12504;DHT22;6316;48.118;-1.690;2022-12-01T03:27:28;5.00;99.90
12504;DHT22;6316;48.118;-1.690;2022-12-01T03:29:57;5.00;99.90
12504;DHT22;6316;48.118;-1.690;2022-12-01T03:32:39;5.00;99.90
12504;DHT22;6316;48.118;-1.690;2022-12-01T03:35:32;4.90;99.90
12504;DHT22;6316;48.118;-1.690;2022-12-01T03:38:16;4.90;99.90
12504;DHT22;6316;48.118;-1.690;2022-12-01T03:40:45;4.90;99.90
12504;DHT22;6316;48.118;-1.690;2022-12-01T03:43:20;4.80;99.90
12504;DHT22;6316;48.118;-1.690;2022-12-01T03:46:20;4.80;99.90
12504;DHT22;6316;48.118;-1.690;2022-12-01T03:48:46;4.80;99.90
12504;DHT22;6316;48.118;-1.690;2022-12-01T03:54:02;4.80;99.90
12504;DHT22;6316;48.118;-1.690;2022-12-01T03:56:35;4.70;99.90
12504;DHT22;6316;48.118;-1.690;2022-12-01T03:59:04;4.60;99.90
12504;DHT22;6316;48.118;-1.690;2022-12-01T04:01:35;4.60;99.90
12504;DHT22;6316;48.118;-1.690;2022-12-01T04:04:06;4.60;99.90
12504;DHT22;6316;48.118;-1.690;2022-12-01T04:06:32;4.60;99.90
12504;DHT22;6316;48.118;-1.690;2022-12-01T04:08:58;4.60;99.90
12504;DHT22;6316;48.118;-1.690;2022-12-01T04:11:24;4.50;99.90
12504;DHT22;6316;48.118;-1.690;2022-12-01T04:14:08;4.50;99.90
12504;DHT22;6316;48.118;-1.690;2022-12-01T04:16:33;4.50;99.90
12504;DHT22;6316;48.118;-1.690;2022-12-01T04:18:59;4.40;99.90
12504;DHT22;6316;48.118;-1.690;2022-12-01T04:21:24;4.40;99.90
12504;DHT22;6316;48.118;-1.690;2022-12-01T04:23:50;4.40;99.90
12504;DHT22;6316;48.118;-1.690;2022-12-01T04:26:26;4.40;99.90
12504;DHT22;6316;48.118;-1.690;2022-12-01T04:28:51;4.40;99.90
12504;DHT22;6316;48.118;-1.690;2022-12-01T04:31:17;4.30;99.90
12504;DHT22;6316;48.118;-1.690;2022-12-01T04:33:42;4.30;99.90
12504;DHT22;6316;48.118;-1.690;2022-12-01T04:36:08;4.30;99.90
12504;DHT22;6316;48.118;-1.690;2022-12-01T04:38:34;4.30;99.90
12504;DHT22;6316;48.118;-1.690;2022-12-01T04:41:11;4.30;99.90
12504;DHT22;6316;48.118;-1.690;2022-12-01T04:43:37;4.30;99.90
12504;DHT22;6316;48.118;-1.690;2022-12-01T04:46:03;4.20;99.90
12504;DHT22;6316;48.118;-1.690;2022-12-01T04:48:29;4.20;99.90
12504;DHT22;6316;48.118;-1.690;2022-12-01T04:50:54;4.30;99.90
12504;DHT22;6316;48.118;-1.690;2022-12-01T04:53:20;4.20;99.90
12504;DHT22;6316;48.118;-1.690;2022-12-01T04:55:46;4.20;99.90
12504;DHT22;6316;48.118;-1.690;2022-12-01T04:58:11;4.20;99.90
12504;DHT22;6316;48.118;-1.690;2022-12-01T05:00:37;4.10;99.90
12504;DHT22;6316;48.118;-1.690;2022-12-01T05:03:03;4.20;99.90
12504;DHT22;6316;48.118;-1.690;2022-12-01T05:05:29;4.10;99.90
12504;DHT22;6316;48.118;-1.690;2022-12-01T05:07:54;4.20;99.90
12504;DHT22;6316;48.118;-1.690;2022-12-01T05:10:20;4.00;99.90
12504;DHT22;6316;48.118;-1.690;2022-12-01T05:12:46;4.10;99.90
12504;DHT22;6316;48.118;-1.690;2022-12-01T05:15:12;4.10;99.90
12504;DHT22;6316;48.118;-1.690;2022-12-01T05:17:38;4.10;99.90
12504;DHT22;6316;48.118;-1.690;2022-12-01T05:20:04;4.10;99.90
12504;DHT22;6316;48.118;-1.690;2022-12-01T05:22:49;4.00;99.90
12504;DHT22;6316;48.118;-1.690;2022-12-01T05:25:17;4.00;99.90
12504;DHT22;6316;48.118;-1.690;2022-12-01T05:27:42;4.00;99.90
12504;DHT22;6316;48.118;-1.690;2022-12-01T05:30:09;4.00;99.90
12504;DHT22;6316;48.118;-1.690;2022-12-01T05:32:34;3.90;99.90
12504;DHT22;6316;48.118;-1.690;2022-12-01T05:35:00;3.90;99.90
12504;DHT22;6316;48.118;-1.690;2022-12-01T05:37:26;3.90;99.90
12504;DHT22;6316;48.118;-1.690;2022-12-01T05:39:56;3.90;99.90
12504;DHT22;6316;48.118;-1.690;2022-12-01T05:42:22;3.90;99.90
12504;DHT22;6316;48.118;-1.690;2022-12-01T05:44:47;3.90;99.90
12504;DHT22;6316;48.118;-1.690;2022-12-01T05:47:13;3.80;99.90
12504;DHT22;6316;48.118;-1.690;2022-12-01T05:49:38;3.80;99.90
12504;DHT22;6316;48.118;-1.690;2022-12-01T05:52:04;3.70;99.90
12504;DHT22;6316;48.118;-1.690;2022-12-01T05:54:29;3.80;99.90
12504;DHT22;6316;48.118;-1.690;2022-12-01T05:56:55;3.70;99.90
12504;DHT22;6316;48.118;-1.690;2022-12-01T05:59:21;3.70;99.90
12504;DHT22;6316;48.118;-1.690;2022-12-01T06:01:46;3.70;99.90
12504;DHT22;6316;48.118;-1.690;2022-12-01T06:04:12;3.70;99.90
12504;DHT22;6316;48.118;-1.690;2022-12-01T06:06:37;3.80;99.90
12504;DHT22;6316;48.118;-1.690;2022-12-01T06:09:03;3.70;99.90
12504;DHT22;6316;48.118;-1.690;2022-12-01T06:11:29;3.70;99.90
12504;DHT22;6316;48.118;-1.690;2022-12-01T06:13:54;3.70;99.90
12504;DHT22;6316;48.118;-1.690;2022-12-01T06:16:20;3.60;99.90
12504;DHT22;6316;48.118;-1.690;2022-12-01T06:18:45;3.60;99.90
12504;DHT22;6316;48.118;-1.690;2022-12-01T06:21:11;3.60;99.90
12504;DHT22;6316;48.118;-1.690;2022-12-01T06:23:36;3.60;99.90
12504;DHT22;6316;48.118;-1.690;2022-12-01T06:26:02;3.60;99.90
12504;DHT22;6316;48.118;-1.690;2022-12-01T06:28:28;3.60;99.90
12504;DHT22;6316;48.118;-1.690;2022-12-01T06:30:53;3.60;99.90
12504;DHT22;6316;48.118;-1.690;2022-12-01T06:33:19;3.60;99.90
12504;DHT22;6316;48.118;-1.690;2022-12-01T06:35:45;3.60;99.90
12504;DHT22;6316;48.118;-1.690;2022-12-01T06:38:10;3.60;99.90
12504;DHT22;6316;48.118;-1.690;2022-12-01T06:40:36;3.60;99.90
12504;DHT22;6316;48.118;-1.690;2022-12-01T06:43:02;3.60;99.90
12504;DHT22;6316;48.118;-1.690;2022-12-01T06:45:28;3.60;99.90
12504;DHT22;6316;48.118;-1.690;2022-12-01T06:47:55;3.60;99.90
12504;DHT22;6316;48.118;-1.690;2022-12-01T06:50:22;3.60;99.90
12504;DHT22;6316;48.118;-1.690;2022-12-01T06:52:47;3.60;99.90
12504;DHT22;6316;48.118;-1.690;2022-12-01T06:55:13;3.60;99.90
12504;DHT22;6316;48.118;-1.690;2022-12-01T06:57:39;3.60;99.90
12504;DHT22;6316;48.118;-1.690;2022-12-01T07:00:05;3.60;99.90
12504;DHT22;6316;48.118;-1.690;2022-12-01T07:02:33;3.60;99.90
12504;DHT22;6316;48.118;-1.690;2022-12-01T07:04:58;3.60;99.90
12504;DHT22;6316;48.118;-1.690;2022-12-01T07:07:24;3.60;99.90
12504;DHT22;6316;48.118;-1.690;2022-12-01T07:09:50;3.60;99.90
12504;DHT22;6316;48.118;-1.690;2022-12-01T07:12:15;3.60;99.90
12504;DHT22;6316;48.118;-1.690;2022-12-01T07:14:41;3.60;99.90
12504;DHT22;6316;48.118;-1.690;2022-12-01T07:17:07;3.50;99.90
12504;DHT22;6316;48.118;-1.690;2022-12-01T07:19:34;3.50;99.90
12504;DHT22;6316;48.118;-1.690;2022-12-01T07:21:59;3.50;99.90
12504;DHT22;6316;48.118;-1.690;2022-12-01T07:24:25;3.50;99.90
12504;DHT22;6316;48.118;-1.690;2022-12-01T07:26:51;3.50;99.90
12504;DHT22;6316;48.118;-1.690;2022-12-01T07:29:16;3.50;99.90
12504;DHT22;6316;48.118;-1.690;2022-12-01T07:31:42;3.50;99.90
12504;DHT22;6316;48.118;-1.690;2022-12-01T07:34:10;3.50;99.90
12504;DHT22;6316;48.118;-1.690;2022-12-01T07:36:36;3.50;99.90
12504;DHT22;6316;48.118;-1.690;2022-12-01T07:39:06;3.50;99.90
12504;DHT22;6316;48.118;-1.690;2022-12-01T07:41:33;3.50;99.90
12504;DHT22;6316;48.118;-1.690;2022-12-01T07:43:59;3.50;99.90
12504;DHT22;6316;48.118;-1.690;2022-12-01T07:46:26;3.60;99.90
12504;DHT22;6316;48.118;-1.690;2022-12-01T07:48:52;3.50;99.90
12504;DHT22;6316;48.118;-1.690;2022-12-01T07:51:19;3.50;99.90
12504;DHT22;6316;48.118;-1.690;2022-12-01T07:53:47;3.50;99.90
12504;DHT22;6316;48.118;-1.690;2022-12-01T07:56:14;3.50;99.90
12504;DHT22;6316;48.118;-1.690;2022-12-01T07:58:40;3.60;99.90
12504;DHT22;6316;48.118;-1.690;2022-12-01T08:01:14;3.60;99.90
12504;DHT22;6316;48.118;-1.690;2022-12-01T08:03:40;3.60;99.90
12504;DHT22;6316;48.118;-1.690;2022-12-01T08:06:07;3.60;99.90
12504;DHT22;6316;48.118;-1.690;2022-12-01T08:08:35;3.60;99.90
12504;DHT22;6316;48.118;-1.690;2022-12-01T08:11:05;3.60;99.90
12504;DHT22;6316;48.118;-1.690;2022-12-01T08:13:31;3.60;99.90
12504;DHT22;6316;48.118;-1.690;2022-12-01T08:15:57;3.60;99.90
12504;DHT22;6316;48.118;-1.690;2022-12-01T08:18:23;3.60;99.90
12504;DHT22;6316;48.118;-1.690;2022-12-01T08:20:50;3.60;99.90
12504;DHT22;6316;48.118;-1.690;2022-12-01T08:23:15;3.70;99.90
12504;DHT22;6316;48.118;-1.690;2022-12-01T08:25:41;3.70;99.90
12504;DHT22;6316;48.118;-1.690;2022-12-01T08:28:07;3.70;99.90
12504;DHT22;6316;48.118;-1.690;2022-12-01T08:30:32;3.70;99.90
12504;DHT22;6316;48.118;-1.690;2022-12-01T08:32:58;3.70;99.90
12504;DHT22;6316;48.118;-1.690;2022-12-01T08:35:24;3.70;99.90
12504;DHT22;6316;48.118;-1.690;2022-12-01T08:37:53;3.70;99.90
12504;DHT22;6316;48.118;-1.690;2022-12-01T08:40:19;3.70;99.90
12504;DHT22;6316;48.118;-1.690;2022-12-01T08:42:45;3.70;99.90
12504;DHT22;6316;48.118;-1.690;2022-12-01T08:45:11;3.80;99.90
12504;DHT22;6316;48.118;-1.690;2022-12-01T08:47:37;3.80;99.90
12504;DHT22;6316;48.118;-1.690;2022-12-01T08:50:03;3.80;99.90
12504;DHT22;6316;48.118;-1.690;2022-12-01T08:52:33;3.90;99.90
12504;DHT22;6316;48.118;-1.690;2022-12-01T08:54:59;3.90;99.90
12504;DHT22;6316;48.118;-1.690;2022-12-01T08:57:29;3.90;99.90
12504;DHT22;6316;48.118;-1.690;2022-12-01T09:00:03;4.00;99.90
12504;DHT22;6316;48.118;-1.690;2022-12-01T09:02:29;4.00;99.90
12504;DHT22;6316;48.118;-1.690;2022-12-01T09:04:54;4.00;99.90
12504;DHT22;6316;48.118;-1.690;2022-12-01T09:07:20;4.10;99.90
12504;DHT22;6316;48.118;-1.690;2022-12-01T09:09:46;4.10;99.90
12504;DHT22;6316;48.118;-1.690;2022-12-01T09:12:12;4.10;99.90
12504;DHT22;6316;48.118;-1.690;2022-12-01T09:14:39;4.10;99.90
12504;DHT22;6316;48.118;-1.690;2022-12-01T09:17:06;4.10;99.90
12504;DHT22;6316;48.118;-1.690;2022-12-01T09:19:32;4.20;99.90
12504;DHT22;6316;48.118;-1.690;2022-12-01T09:21:58;4.20;99.90
12504;DHT22;6316;48.118;-1.690;2022-12-01T09:24:24;4.20;99.90
12504;DHT22;6316;48.118;-1.690;2022-12-01T09:26:54;4.20;99.90
12504;DHT22;6316;48.118;-1.690;2022-12-01T09:29:20;4.30;99.90
12504;DHT22;6316;48.118;-1.690;2022-12-01T09:31:46;4.30;99.90
12504;DHT22;6316;48.118;-1.690;2022-12-01T09:34:18;4.30;99.90
12504;DHT22;6316;48.118;-1.690;2022-12-01T09:36:44;4.30;99.90
12504;DHT22;6316;48.118;-1.690;2022-12-01T09:39:14;4.40;99.90
12504;DHT22;6316;48.118;-1.690;2022-12-01T09:41:56;4.40;99.90
12504;DHT22;6316;48.118;-1.690;2022-12-01T09:44:34;4.40;99.90
12504;DHT22;6316;48.118;-1.690;2022-12-01T09:47:15;4.40;99.90
12504;DHT22;6316;48.118;-1.690;2022-12-01T09:50:13;4.50;99.90
12504;DHT22;6316;48.118;-1.690;2022-12-01T09:52:51;4.50;99.90
12504;DHT22;6316;48.118;-1.690;2022-12-01T09:55:20;4.60;99.90
12504;DHT22;6316;48.118;-1.690;2022-12-01T09:57:48;4.60;99.90
12504;DHT22;6316;48.118;-1.690;2022-12-01T10:05:48;5.00;99.90
12504;DHT22;6316;48.118;-1.690;2022-12-01T10:08:18;5.30;99.90
12504;DHT22;6316;48.118;-1.690;2022-12-01T10:10:47;5.40;99.90
12504;DHT22;6316;48.118;-1.690;2022-12-01T10:13:27;5.50;99.90
12504;DHT22;6316;48.118;-1.690;2022-12-01T10:27:07;5.50;99.90
12504;DHT22;6316;48.118;-1.690;2022-12-01T10:29:44;5.40;99.90
12504;DHT22;6316;48.118;-1.690;2022-12-01T10:32:18;5.30;99.90
12504;DHT22;6316;48.118;-1.690;2022-12-01T10:34:45;5.30;99.90
12504;DHT22;6316;48.118;-1.690;2022-12-01T10:37:30;5.20;99.90
12504;DHT22;6316;48.118;-1.690;2022-12-01T10:39:57;5.20;99.90
12504;DHT22;6316;48.118;-1.690;2022-12-01T10:42:35;5.10;99.90
12504;DHT22;6316;48.118;-1.690;2022-12-01T10:45:05;5.10;99.90
12504;DHT22;6316;48.118;-1.690;2022-12-01T10:47:31;5.10;99.90
12504;DHT22;6316;48.118;-1.690;2022-12-01T10:49:57;5.10;99.90
12504;DHT22;6316;48.118;-1.690;2022-12-01T10:52:36;5.20;99.90
12504;DHT22;6316;48.118;-1.690;2022-12-01T10:55:12;5.20;99.90
12504;DHT22;6316;48.118;-1.690;2022-12-01T10:57:48;5.30;99.90
12504;DHT22;6316;48.118;-1.690;2022-12-01T11:00:25;5.30;99.90
12504;DHT22;6316;48.118;-1.690;2022-12-01T11:02:52;5.30;99.90
12504;DHT22;6316;48.118;-1.690;2022-12-01T11:05:26;5.40;99.90
12504;DHT22;6316;48.118;-1.690;2022-12-01T11:07:53;5.40;99.90
12504;DHT22;6316;48.118;-1.690;2022-12-01T11:10:34;5.50;99.90
12504;DHT22;6316;48.118;-1.690;2022-12-01T11:15:54;5.50;99.90
12504;DHT22;6316;48.118;-1.690;2022-12-01T11:18:30;5.50;99.90
12504;DHT22;6316;48.118;-1.690;2022-12-01T11:21:15;5.50;99.90
12504;DHT22;6316;48.118;-1.690;2022-12-01T11:23:51;5.60;99.90
12504;DHT22;6316;48.118;-1.690;2022-12-01T11:26:22;5.50;99.90
12504;DHT22;6316;48.118;-1.690;2022-12-01T11:29:06;5.50;99.90
12504;DHT22;6316;48.118;-1.690;2022-12-01T11:31:36;5.60;99.90
12504;DHT22;6316;48.118;-1.690;2022-12-01T11:34:03;5.60;99.90
12504;DHT22;6316;48.118;-1.690;2022-12-01T11:36:37;5.60;99.90
12504;DHT22;6316;48.118;-1.690;2022-12-01T11:39:21;5.70;99.90
12504;DHT22;6316;48.118;-1.690;2022-12-01T11:41:54;5.70;99.90
12504;DHT22;6316;48.118;-1.690;2022-12-01T11:44:20;5.80;99.90
12504;DHT22;6316;48.118;-1.690;2022-12-01T11:46:46;5.80;99.90
12504;DHT22;6316;48.118;-1.690;2022-12-01T11:49:24;5.90;99.90
12504;DHT22;6316;48.118;-1.690;2022-12-01T11:51:53;6.00;99.90
12504;DHT22;6316;48.118;-1.690;2022-12-01T11:54:22;6.00;99.90
12504;DHT22;6316;48.118;-1.690;2022-12-01T11:56:49;6.00;99.90
12504;DHT22;6316;48.118;-1.690;2022-12-01T11:59:24;6.10;99.90
12504;DHT22;6316;48.118;-1.690;2022-12-01T12:05:31;6.20;99.90
12504;DHT22;6316;48.118;-1.690;2022-12-01T12:08:19;6.20;99.90
12504;DHT22;6316;48.118;-1.690;2022-12-01T12:16:50;6.40;99.90
12504;DHT22;6316;48.118;-1.690;2022-12-01T12:25:00;6.60;99.90
12504;DHT22;6316;48.118;-1.690;2022-12-01T12:27:51;6.60;99.90
12504;DHT22;6316;48.118;-1.690;2022-12-01T12:30:26;6.70;99.90
12504;DHT22;6316;48.118;-1.690;2022-12-01T12:35:59;6.70;99.90
12504;DHT22;6316;48.118;-1.690;2022-12-01T12:54:49;7.00;99.90
12504;DHT22;6316;48.118;-1.690;2022-12-01T12:57:28;7.10;99.90
12504;DHT22;6316;48.118;-1.690;2022-12-01T13:00:00;7.20;99.90
12504;DHT22;6316;48.118;-1.690;2022-12-01T13:05:41;7.20;99.90
12504;DHT22;6316;48.118;-1.690;2022-12-01T13:08:34;7.20;99.90
12504;DHT22;6316;48.118;-1.690;2022-12-01T13:14:10;7.20;99.90
12504;DHT22;6316;48.118;-1.690;2022-12-01T13:16:43;7.20;99.90
12504;DHT22;6316;48.118;-1.690;2022-12-01T13:19:31;7.20;99.90
12504;DHT22;6316;48.118;-1.690;2022-12-01T13:21:58;7.20;99.90
12504;DHT22;6316;48.118;-1.690;2022-12-01T13:24:28;7.20;99.90
12504;DHT22;6316;48.118;-1.690;2022-12-01T13:27:10;7.20;99.90
12504;DHT22;6316;48.118;-1.690;2022-12-01T13:29:42;7.30;99.90
12504;DHT22;6316;48.118;-1.690;2022-12-01T13:32:38;7.30;99.90
12504;DHT22;6316;48.118;-1.690;2022-12-01T13:35:19;7.30;99.90
12504;DHT22;6316;48.118;-1.690;2022-12-01T13:37:46;7.30;99.90
12504;DHT22;6316;48.118;-1.690;2022-12-01T13:40:29;7.40;99.90
12504;DHT22;6316;48.118;-1.690;2022-12-01T13:42:56;7.40;99.90
12504;DHT22;6316;48.118;-1.690;2022-12-01T13:45:23;7.40;99.90
12504;DHT22;6316;48.118;-1.690;2022-12-01T13:47:52;7.50;99.90
12504;DHT22;6316;48.118;-1.690;2022-12-01T14:03:58;7.60;99.90
12504;DHT22;6316;48.118;-1.690;2022-12-01T14:09:05;7.70;99.90
12504;DHT22;6316;48.118;-1.690;2022-12-01T14:11:32;7.70;99.90
12504;DHT22;6316;48.118;-1.690;2022-12-01T14:14:02;7.80;99.90
12504;DHT22;6316;48.118;-1.690;2022-12-01T14:16:50;7.80;99.90
12504;DHT22;6316;48.118;-1.690;2022-12-01T14:22:05;7.90;99.90
12504;DHT22;6316;48.118;-1.690;2022-12-01T14:24:34;7.90;99.90
12504;DHT22;6316;48.118;-1.690;2022-12-01T14:27:02;7.90;99.90
12504;DHT22;6316;48.118;-1.690;2022-12-01T14:29:35;8.00;99.90
12504;DHT22;6316;48.118;-1.690;2022-12-01T14:34:37;8.00;99.90
12504;DHT22;6316;48.118;-1.690;2022-12-01T14:37:25;8.10;99.90
12504;DHT22;6316;48.118;-1.690;2022-12-01T14:40:02;8.10;99.90
12504;DHT22;6316;48.118;-1.690;2022-12-01T14:42:33;8.10;99.90
12504;DHT22;6316;48.118;-1.690;2022-12-01T14:45:31;8.10;99.90
12504;DHT22;6316;48.118;-1.690;2022-12-01T14:48:04;8.10;99.90
12504;DHT22;6316;48.118;-1.690;2022-12-01T14:50:43;8.10;99.90
12504;DHT22;6316;48.118;-1.690;2022-12-01T14:53:30;8.10;99.90
12504;DHT22;6316;48.118;-1.690;2022-12-01T14:56:22;8.10;99.90
12504;DHT22;6316;48.118;-1.690;2022-12-01T14:58:52;8.10;99.90
12504;DHT22;6316;48.118;-1.690;2022-12-01T15:01:20;8.10;99.90
12504;DHT22;6316;48.118;-1.690;2022-12-01T15:03:49;8.10;99.90
12504;DHT22;6316;48.118;-1.690;2022-12-01T15:06:26;8.20;99.90
12504;DHT22;6316;48.118;-1.690;2022-12-01T15:09:18;8.20;99.90
12504;DHT22;6316;48.118;-1.690;2022-12-01T15:14:46;8.20;99.90
12504;DHT22;6316;48.118;-1.690;2022-12-01T15:17:30;8.20;99.90
12504;DHT22;6316;48.118;-1.690;2022-12-01T15:19:57;8.20;99.90
12504;DHT22;6316;48.118;-1.690;2022-12-01T15:22:29;8.10;99.90
12504;DHT22;6316;48.118;-1.690;2022-12-01T15:25:05;8.10;99.90
12504;DHT22;6316;48.118;-1.690;2022-12-01T15:27:31;8.10;99.90
12504;DHT22;6316;48.118;-1.690;2022-12-01T15:29:58;8.20;99.90
12504;DHT22;6316;48.118;-1.690;2022-12-01T15:32:30;8.10;99.90
12504;DHT22;6316;48.118;-1.690;2022-12-01T15:34:57;8.10;99.90
12504;DHT22;6316;48.118;-1.690;2022-12-01T15:37:33;8.20;99.90
12504;DHT22;6316;48.118;-1.690;2022-12-01T15:40:07;8.10;99.90
12504;DHT22;6316;48.118;-1.690;2022-12-01T15:42:34;8.10;99.90
12504;DHT22;6316;48.118;-1.690;2022-12-01T15:45:16;8.10;99.90
12504;DHT22;6316;48.118;-1.690;2022-12-01T15:47:43;8.10;99.90
12504;DHT22;6316;48.118;-1.690;2022-12-01T15:50:28;8.10;99.90
12504;DHT22;6316;48.118;-1.690;2022-12-01T15:53:02;8.00;99.90
12504;DHT22;6316;48.118;-1.690;2022-12-01T15:55:31;8.00;99.90
12504;DHT22;6316;48.118;-1.690;2022-12-01T15:57:58;7.90;99.90
12504;DHT22;6316;48.118;-1.690;2022-12-01T16:00:25;8.00;99.90
12504;DHT22;6316;48.118;-1.690;2022-12-01T16:02:56;7.90;99.90
12504;DHT22;6316;48.118;-1.690;2022-12-01T16:05:27;7.90;99.90
12504;DHT22;6316;48.118;-1.690;2022-12-01T16:07:54;7.80;99.90
12504;DHT22;6316;48.118;-1.690;2022-12-01T16:10:26;7.80;99.90
12504;DHT22;6316;48.118;-1.690;2022-12-01T16:12:52;7.80;99.90
12504;DHT22;6316;48.118;-1.690;2022-12-01T16:15:19;7.70;99.90
12504;DHT22;6316;48.118;-1.690;2022-12-01T16:17:51;7.70;99.90
12504;DHT22;6316;48.118;-1.690;2022-12-01T16:20:37;7.70;99.90
12504;DHT22;6316;48.118;-1.690;2022-12-01T16:23:14;7.60;99.90
12504;DHT22;6316;48.118;-1.690;2022-12-01T16:25:45;7.60;99.90
12504;DHT22;6316;48.118;-1.690;2022-12-01T16:28:24;7.60;99.90
12504;DHT22;6316;48.118;-1.690;2022-12-01T16:30:50;7.50;99.90
12504;DHT22;6316;48.118;-1.690;2022-12-01T16:33:19;7.50;99.90
12504;DHT22;6316;48.118;-1.690;2022-12-01T16:35:46;7.40;99.90
12504;DHT22;6316;48.118;-1.690;2022-12-01T16:38:23;7.50;99.90
12504;DHT22;6316;48.118;-1.690;2022-12-01T16:40:51;7.40;99.90
12504;DHT22;6316;48.118;-1.690;2022-12-01T16:43:20;7.40;99.90
12504;DHT22;6316;48.118;-1.690;2022-12-01T16:45:47;7.30;99.90
12504;DHT22;6316;48.118;-1.690;2022-12-01T16:48:19;7.30;99.90
12504;DHT22;6316;48.118;-1.690;2022-12-01T16:50:46;7.30;99.90
12504;DHT22;6316;48.118;-1.690;2022-12-01T16:53:12;7.20;99.90
12504;DHT22;6316;48.118;-1.690;2022-12-01T16:55:56;7.10;99.90
12504;DHT22;6316;48.118;-1.690;2022-12-01T16:58:22;7.10;99.90
12504;DHT22;6316;48.118;-1.690;2022-12-01T17:00:48;7.10;99.90
12504;DHT22;6316;48.118;-1.690;2022-12-01T17:03:18;7.10;99.90
12504;DHT22;6316;48.118;-1.690;2022-12-01T17:05:44;7.00;99.90
12504;DHT22;6316;48.118;-1.690;2022-12-01T17:08:10;7.00;99.90
12504;DHT22;6316;48.118;-1.690;2022-12-01T17:10:43;6.90;99.90
12504;DHT22;6316;48.118;-1.690;2022-12-01T17:13:09;6.90;99.90
12504;DHT22;6316;48.118;-1.690;2022-12-01T17:15:39;6.90;99.90
12504;DHT22;6316;48.118;-1.690;2022-12-01T17:18:05;6.90;99.90
12504;DHT22;6316;48.118;-1.690;2022-12-01T17:20:31;6.80;99.90
12504;DHT22;6316;48.118;-1.690;2022-12-01T17:22:56;6.80;99.90
12504;DHT22;6316;48.118;-1.690;2022-12-01T17:25:23;6.70;99.90
12504;DHT22;6316;48.118;-1.690;2022-12-01T17:27:49;6.70;99.90
12504;DHT22;6316;48.118;-1.690;2022-12-01T17:30:15;6.80;99.90
12504;DHT22;6316;48.118;-1.690;2022-12-01T17:32:41;6.70;99.90
12504;DHT22;6316;48.118;-1.690;2022-12-01T17:35:07;6.70;99.90
12504;DHT22;6316;48.118;-1.690;2022-12-01T17:37:32;6.60;99.90
12504;DHT22;6316;48.118;-1.690;2022-12-01T17:39:58;6.60;99.90
12504;DHT22;6316;48.118;-1.690;2022-12-01T17:42:23;6.60;99.90
12504;DHT22;6316;48.118;-1.690;2022-12-01T17:44:49;6.50;99.90
12504;DHT22;6316;48.118;-1.690;2022-12-01T17:47:15;6.50;99.90
12504;DHT22;6316;48.118;-1.690;2022-12-01T17:49:41;6.40;99.90
12504;DHT22;6316;48.118;-1.690;2022-12-01T17:52:06;6.40;99.90